createdAt,value
2018-03-23T00:00:11.632Z,10.52
2018-03-23T00:02:37.870Z,10.30
2018-03-23T00:05:05.729Z,9.52
2018-03-23T00:07:32.133Z,11.38
2018-03-23T00:09:58.369Z,10.18
2018-03-23T00:12:31.523Z,11.20
2018-03-23T00:14:57.751Z,9.77
2018-03-23T00:17:23.979Z,9.93
2018-03-23T00:19:50.191Z,8.73
2018-03-23T00:22:16.412Z,10.90
2018-03-23T00:24:43.359Z,9.00
2018-03-23T00:27:09.748Z,10.30
2018-03-23T00:29:36.876Z,10.38
2018-03-23T00:32:04.146Z,10.55
2018-03-23T00:34:31.117Z,10.48
2018-03-23T00:36:57.319Z,10.75
2018-03-23T00:39:23.560Z,10.38
2018-03-23T00:41:49.782Z,10.20
2018-03-23T00:44:16.005Z,9.48
2018-03-23T00:46:42.223Z,9.55
2018-03-23T00:49:08.458Z,10.00
2018-03-23T00:51:34.664Z,10.43
2018-03-23T00:54:00.908Z,10.57
2018-03-23T00:56:27.114Z,10.35
2018-03-23T00:58:53.326Z,9.57
2018-03-23T01:01:19.550Z,11.50
2018-03-23T01:03:46.498Z,11.00
2018-03-23T01:06:13.488Z,10.75
2018-03-23T01:08:39.706Z,12.27
2018-03-23T01:11:06.708Z,11.50
2018-03-23T01:13:32.937Z,10.40
2018-03-23T01:15:59.148Z,11.10
2018-03-23T01:18:25.354Z,10.18
2018-03-23T01:20:51.648Z,12.00
2018-03-23T01:23:18.131Z,10.05
2018-03-23T01:25:44.348Z,10.10
2018-03-23T01:28:10.608Z,11.15
2018-03-23T01:30:36.840Z,11.63
2018-03-23T01:33:03.072Z,13.15
2018-03-23T01:35:29.758Z,10.52
2018-03-23T01:37:55.986Z,12.63
2018-03-23T01:40:22.226Z,11.98
2018-03-23T01:42:48.432Z,13.32
2018-03-23T01:45:14.662Z,11.70
2018-03-23T01:47:40.909Z,13.68
2018-03-23T01:50:07.927Z,13.07
2018-03-23T01:52:34.149Z,12.77
2018-03-23T01:55:00.364Z,12.30
2018-03-23T01:57:26.944Z,14.02
2018-03-23T01:59:53.147Z,15.05
2018-03-23T02:02:19.355Z,13.02
2018-03-23T02:04:46.314Z,13.52
2018-03-23T02:07:12.566Z,15.55
2018-03-23T02:09:38.793Z,15.77
2018-03-23T02:12:05.771Z,14.05
2018-03-23T02:14:32.272Z,15.65
2018-03-23T02:16:58.475Z,15.82
2018-03-23T02:19:24.713Z,14.98
2018-03-23T02:21:50.942Z,13.95
2018-03-23T02:24:17.151Z,15.23
2018-03-23T02:26:45.917Z,15.85
2018-03-23T02:29:12.113Z,16.30
2018-03-23T02:31:38.720Z,15.48
2018-03-23T02:34:04.948Z,17.58
2018-03-23T02:36:31.170Z,13.82
2018-03-23T02:38:57.393Z,17.00
2018-03-23T02:41:23.603Z,15.95
2018-03-23T02:43:50.916Z,16.30
2018-03-23T02:46:17.885Z,16.70
2018-03-23T02:48:44.155Z,15.30
2018-03-23T02:51:11.125Z,15.02
2018-03-23T02:53:38.076Z,16.15
2018-03-23T02:56:04.301Z,14.87
2018-03-23T02:58:31.259Z,16.10
2018-03-23T03:00:57.493Z,18.87
2018-03-23T03:03:23.708Z,17.25
2018-03-23T03:05:49.954Z,16.75
2018-03-23T03:08:16.171Z,16.05
2018-03-23T03:10:42.381Z,14.27
2018-03-23T03:13:09.335Z,16.40
2018-03-23T03:15:36.294Z,17.45
2018-03-23T03:18:03.321Z,16.17
2018-03-23T03:20:29.520Z,16.42
2018-03-23T03:22:55.770Z,18.30
2018-03-23T03:25:22.624Z,16.90
2018-03-23T03:27:48.879Z,15.45
2018-03-23T03:30:15.128Z,17.12
2018-03-23T03:32:41.344Z,17.27
2018-03-23T03:35:07.574Z,18.25
2018-03-23T03:37:33.774Z,16.87
2018-03-23T03:40:00.013Z,18.92
2018-03-23T03:42:26.254Z,17.58
2018-03-23T03:44:52.480Z,16.95
2018-03-23T03:47:18.705Z,18.37
2018-03-23T03:49:44.904Z,18.02
2018-03-23T03:52:11.118Z,18.30
2018-03-23T03:54:38.062Z,17.40
2018-03-23T03:57:04.306Z,17.37
2018-03-23T03:59:30.524Z,17.48
2018-03-23T04:01:56.735Z,18.45
2018-03-23T04:04:22.970Z,19.70
2018-03-23T04:06:49.196Z,17.98
2018-03-23T04:09:15.430Z,17.27
2018-03-23T04:11:42.400Z,18.33
2018-03-23T04:14:08.918Z,18.30
2018-03-23T04:16:35.152Z,19.90
2018-03-23T04:19:01.370Z,18.40
2018-03-23T04:21:27.596Z,18.33
2018-03-23T04:23:53.800Z,19.37
2018-03-23T04:26:20.014Z,19.00
2018-03-23T04:28:46.327Z,19.48
2018-03-23T04:31:12.568Z,18.92
2018-03-23T04:33:38.789Z,20.67
2018-03-23T04:36:05.016Z,20.48
2018-03-23T04:38:31.248Z,19.05
2018-03-23T04:40:57.466Z,21.62
2018-03-23T04:43:24.452Z,20.90
2018-03-23T04:45:50.711Z,21.08
2018-03-23T04:48:16.947Z,18.37
2018-03-23T04:50:43.159Z,20.08
2018-03-23T04:53:09.395Z,21.98
2018-03-23T04:55:36.370Z,19.45
2018-03-23T04:58:02.587Z,20.83
2018-03-23T05:00:29.570Z,20.45
2018-03-23T05:02:55.777Z,18.75
2018-03-23T05:05:22.311Z,19.67
2018-03-23T05:07:48.527Z,21.05
2018-03-23T05:10:14.771Z,21.50
2018-03-23T05:12:41.004Z,19.87
2018-03-23T05:15:07.251Z,19.67
2018-03-23T05:17:33.489Z,21.05
2018-03-23T05:19:59.737Z,18.42
2018-03-23T05:22:25.994Z,21.70
2018-03-23T05:24:52.238Z,19.48
2018-03-23T05:27:18.471Z,19.50
2018-03-23T05:29:44.699Z,14.77
2018-03-23T05:32:10.923Z,26.48
2018-03-23T05:34:37.511Z,21.48
2018-03-23T05:37:03.733Z,20.35
2018-03-23T05:39:29.992Z,18.37
2018-03-23T05:41:56.190Z,18.55
2018-03-23T05:44:22.395Z,20.85
2018-03-23T05:46:49.365Z,17.10
2018-03-23T05:49:15.575Z,16.20
2018-03-23T05:51:41.815Z,16.70
2018-03-23T05:54:10.686Z,16.10
2018-03-23T05:56:36.985Z,17.52
2018-03-23T05:59:03.242Z,16.48
2018-03-23T06:01:29.469Z,15.38
2018-03-23T06:03:55.704Z,14.55
2018-03-23T06:06:22.664Z,16.25
2018-03-23T06:08:48.900Z,13.38
2018-03-23T06:11:15.844Z,15.18
2018-03-23T06:13:42.788Z,12.73
2018-03-23T06:16:09.015Z,14.32
2018-03-23T06:18:35.217Z,13.68
2018-03-23T06:21:01.456Z,12.40
2018-03-23T06:23:28.755Z,15.45
2018-03-23T06:25:55.420Z,15.52
2018-03-23T06:28:21.644Z,14.95
2018-03-23T06:30:47.900Z,16.20
2018-03-23T06:33:14.098Z,14.63
2018-03-23T06:35:40.334Z,14.55
2018-03-23T06:38:06.594Z,14.93
2018-03-23T06:40:32.818Z,15.40
2018-03-23T06:42:59.116Z,15.95
2018-03-23T06:45:25.357Z,15.23
2018-03-23T06:47:52.312Z,17.75
2018-03-23T06:50:18.535Z,16.70
2018-03-23T06:52:44.738Z,16.95
2018-03-23T06:55:11.334Z,16.87
2018-03-23T06:57:37.540Z,17.25
2018-03-23T07:00:04.556Z,17.12
2018-03-23T07:02:31.523Z,16.92
2018-03-23T07:04:57.741Z,16.65
2018-03-23T07:07:23.996Z,16.55
2018-03-23T07:09:50.960Z,17.48
2018-03-23T07:12:17.203Z,16.77
2018-03-23T07:14:43.430Z,15.93
2018-03-23T07:17:10.433Z,15.88
2018-03-23T07:19:36.652Z,16.37
2018-03-23T07:22:02.881Z,16.92
2018-03-23T07:24:29.147Z,16.90
2018-03-23T07:26:55.436Z,17.12
2018-03-23T07:29:21.637Z,15.60
2018-03-23T07:31:47.851Z,17.17
2018-03-23T07:34:14.091Z,18.02
2018-03-23T07:36:40.347Z,16.58
2018-03-23T07:39:06.580Z,18.73
2018-03-23T07:41:32.859Z,17.42
2018-03-23T07:43:59.809Z,18.50
2018-03-23T07:46:26.050Z,17.62
2018-03-23T07:48:52.284Z,18.60
2018-03-23T07:51:18.519Z,16.70
2018-03-23T07:53:44.846Z,17.42
2018-03-23T07:56:11.015Z,16.50
2018-03-23T07:58:37.251Z,16.70
2018-03-23T08:01:03.520Z,15.98
2018-03-23T08:03:29.788Z,16.67
2018-03-23T08:05:56.025Z,17.30
2018-03-23T08:08:22.271Z,18.40
2018-03-23T08:10:48.534Z,18.08
2018-03-23T08:13:14.815Z,17.62
2018-03-23T08:15:41.302Z,18.08
2018-03-23T08:18:08.251Z,18.80
2018-03-23T08:20:34.463Z,18.27
2018-03-23T08:23:00.712Z,17.27
2018-03-23T08:25:26.934Z,18.25
2018-03-23T08:27:53.496Z,16.92
2018-03-23T08:30:19.782Z,17.12
2018-03-23T08:32:45.979Z,17.12
2018-03-23T08:35:12.220Z,17.65
2018-03-23T08:37:38.449Z,18.10
2018-03-23T08:40:04.682Z,18.15
2018-03-23T08:42:30.928Z,16.70
2018-03-23T08:44:57.191Z,15.25
2018-03-23T08:47:23.406Z,17.50
2018-03-23T08:49:49.622Z,18.02
2018-03-23T08:52:15.839Z,17.95
2018-03-23T08:54:42.060Z,17.45
2018-03-23T08:57:09.063Z,16.02
2018-03-23T08:59:35.324Z,15.98
2018-03-23T09:02:01.580Z,16.73
2018-03-23T09:04:28.552Z,18.12
2018-03-23T09:06:55.552Z,17.10
2018-03-23T09:09:21.822Z,17.58
2018-03-23T09:11:48.068Z,16.75
2018-03-23T09:14:14.304Z,16.73
2018-03-23T09:16:40.592Z,21.08
2018-03-23T09:19:06.792Z,17.50
2018-03-23T09:21:33.018Z,15.88
2018-03-23T09:23:59.246Z,16.50
2018-03-23T09:26:25.472Z,16.23
2018-03-23T09:28:51.705Z,16.20
2018-03-23T09:31:17.936Z,16.42
2018-03-23T09:33:44.159Z,15.52
2018-03-23T09:36:11.144Z,15.15
2018-03-23T09:38:37.508Z,16.45
2018-03-23T09:41:03.742Z,17.33
2018-03-23T09:43:29.965Z,15.90
2018-03-23T09:45:56.165Z,17.12
2018-03-23T09:48:23.139Z,16.60
2018-03-23T09:50:50.542Z,14.82
2018-03-23T09:53:16.926Z,16.92
2018-03-23T09:55:43.156Z,16.58
2018-03-23T09:58:10.653Z,17.30
2018-03-23T10:00:37.052Z,17.92
2018-03-23T10:03:03.281Z,19.40
2018-03-23T10:05:30.660Z,18.70
2018-03-23T10:07:57.067Z,18.65
2018-03-23T10:10:23.316Z,17.20
2018-03-23T10:12:50.162Z,19.00
2018-03-23T10:15:16.400Z,18.02
2018-03-23T10:17:42.667Z,18.85
2018-03-23T10:20:08.895Z,18.40
2018-03-23T10:22:35.116Z,17.92
2018-03-23T10:25:01.344Z,19.42
2018-03-23T10:27:28.371Z,17.85
2018-03-23T10:29:54.618Z,18.12
2018-03-23T10:32:21.089Z,15.77
2018-03-23T10:34:48.078Z,18.27
2018-03-23T10:37:14.335Z,16.80
2018-03-23T10:39:40.805Z,18.50
2018-03-23T10:42:07.137Z,17.52
2018-03-23T10:44:33.357Z,17.10
2018-03-23T10:46:59.605Z,17.58
2018-03-23T10:49:25.865Z,18.40
2018-03-23T10:51:52.155Z,18.60
2018-03-23T10:54:18.355Z,17.62
2018-03-23T10:56:44.587Z,17.35
2018-03-23T10:59:10.806Z,18.37
2018-03-23T11:01:52.226Z,18.90
2018-03-23T11:04:18.448Z,18.52
2018-03-23T11:06:44.707Z,19.12
2018-03-23T11:09:10.967Z,15.15
2018-03-23T11:11:37.204Z,17.58
2018-03-23T11:14:03.452Z,17.30
2018-03-23T11:16:30.422Z,16.52
2018-03-23T11:18:57.661Z,17.52
2018-03-23T11:21:23.893Z,18.23
2018-03-23T11:23:50.140Z,17.37
2018-03-23T11:26:16.383Z,17.40
2018-03-23T11:28:42.740Z,17.08
2018-03-23T11:31:09.744Z,19.70
2018-03-23T11:33:35.992Z,16.67
2018-03-23T11:36:02.574Z,16.35
2018-03-23T11:38:28.816Z,17.25
2018-03-23T11:40:55.048Z,18.73
2018-03-23T11:43:21.283Z,17.05
2018-03-23T11:45:47.517Z,18.15
2018-03-23T11:48:13.771Z,17.17
2018-03-23T11:50:40.044Z,16.15
2018-03-23T11:53:06.237Z,15.57
2018-03-23T11:55:32.452Z,16.10
2018-03-23T11:57:59.059Z,18.05
2018-03-23T12:00:26.024Z,17.27
2018-03-23T12:02:53.004Z,15.85
2018-03-23T12:05:19.296Z,15.98
2018-03-23T12:07:45.503Z,15.20
2018-03-23T12:10:11.739Z,15.95
2018-03-23T12:12:37.973Z,15.02
2018-03-23T12:15:04.246Z,15.27
2018-03-23T12:17:30.506Z,15.50
2018-03-23T12:19:57.049Z,15.52
2018-03-23T12:22:23.278Z,14.65
2018-03-23T12:24:49.545Z,13.50
2018-03-23T12:27:16.601Z,15.80
2018-03-23T12:29:42.833Z,14.25
2018-03-23T12:32:09.069Z,16.25
2018-03-23T12:34:35.277Z,15.15
2018-03-23T12:37:01.535Z,16.60
2018-03-23T12:39:27.794Z,14.40
2018-03-23T12:41:54.073Z,13.70
2018-03-23T12:44:20.320Z,14.43
2018-03-23T12:46:46.584Z,13.85
2018-03-23T12:49:12.825Z,15.07
2018-03-23T12:51:39.028Z,13.57
2018-03-23T12:54:06.265Z,12.63
2018-03-23T12:56:33.283Z,11.70
2018-03-23T12:58:59.521Z,14.75
2018-03-23T13:01:25.757Z,12.55
2018-03-23T13:03:51.972Z,14.80
2018-03-23T13:06:18.221Z,14.27
2018-03-23T13:08:44.439Z,13.20
2018-03-23T13:11:11.666Z,11.88
2018-03-23T13:13:37.912Z,13.45
2018-03-23T13:16:04.145Z,13.40
2018-03-23T13:18:30.374Z,13.50
2018-03-23T13:20:56.584Z,14.82
2018-03-23T13:23:22.864Z,12.20
2018-03-23T13:25:49.114Z,12.80
2018-03-23T13:28:15.389Z,13.70
2018-03-23T13:30:42.374Z,15.02
2018-03-23T13:33:08.608Z,13.95
2018-03-23T13:35:34.870Z,12.75
2018-03-23T13:38:01.106Z,12.95
2018-03-23T13:40:27.360Z,12.70
2018-03-23T13:42:53.588Z,13.27
2018-03-23T13:45:20.104Z,13.93
2018-03-23T13:47:46.340Z,12.20
2018-03-23T13:50:12.642Z,14.98
2018-03-23T13:52:38.828Z,14.23
2018-03-23T13:55:05.110Z,14.10
2018-03-23T13:57:31.354Z,13.68
2018-03-23T13:59:57.605Z,13.52
2018-03-23T14:02:23.839Z,14.15
2018-03-23T14:04:50.112Z,13.43
2018-03-23T14:07:17.098Z,13.98
2018-03-23T14:09:43.344Z,14.52
2018-03-23T14:12:09.580Z,13.07
2018-03-23T14:14:35.829Z,13.70
2018-03-23T14:17:02.056Z,13.35
2018-03-23T14:19:28.294Z,13.25
2018-03-23T14:21:54.511Z,13.07
2018-03-23T14:24:21.498Z,14.52
2018-03-23T14:26:49.347Z,14.40
2018-03-23T14:29:16.307Z,13.50
2018-03-23T14:31:43.288Z,13.13
2018-03-23T14:34:09.517Z,13.43
2018-03-23T14:36:36.511Z,13.00
2018-03-23T14:39:02.794Z,12.88
2018-03-23T14:41:29.016Z,12.93
2018-03-23T14:43:55.267Z,14.50
2018-03-23T14:46:21.487Z,12.32
2018-03-23T14:48:47.739Z,12.45
2018-03-23T14:51:13.977Z,13.13
2018-03-23T14:53:40.945Z,12.37
2018-03-23T14:56:07.244Z,12.10
2018-03-23T14:58:39.571Z,12.30
2018-03-23T15:01:05.824Z,12.25
2018-03-23T15:03:32.843Z,13.05
2018-03-23T15:05:59.109Z,13.38
2018-03-23T15:08:25.331Z,12.43
2018-03-23T15:10:52.291Z,12.15
2018-03-23T15:13:18.531Z,11.95
2018-03-23T15:15:44.776Z,12.30
2018-03-23T15:18:11.073Z,13.20
2018-03-23T15:20:37.307Z,12.48
2018-03-23T15:23:04.315Z,12.82
2018-03-23T15:25:30.548Z,12.45
2018-03-23T15:27:56.834Z,13.02
2018-03-23T15:30:23.822Z,13.75
2018-03-23T15:32:50.068Z,13.38
2018-03-23T15:35:16.305Z,11.60
2018-03-23T15:37:42.533Z,12.05
2018-03-23T15:40:08.795Z,12.90
2018-03-23T15:42:35.045Z,13.38
2018-03-23T15:45:01.277Z,11.52
2018-03-23T15:47:27.494Z,11.82
2018-03-23T15:49:53.758Z,12.23
2018-03-23T15:52:20.012Z,18.70
2018-03-23T15:54:46.267Z,12.77
2018-03-23T15:57:12.544Z,11.75
2018-03-23T15:59:39.510Z,11.25
2018-03-23T16:02:06.564Z,11.10
2018-03-23T16:04:32.768Z,12.52
2018-03-23T16:06:59.037Z,10.60
2018-03-23T16:09:26.047Z,11.50
2018-03-23T16:11:52.272Z,13.60
2018-03-23T16:14:18.508Z,11.32
2018-03-23T16:16:44.745Z,11.60
2018-03-23T16:19:10.980Z,11.45
2018-03-23T16:21:37.216Z,11.85
2018-03-23T16:24:03.774Z,11.70
2018-03-23T16:26:30.087Z,10.60
2018-03-23T16:28:56.273Z,12.73
2018-03-23T16:31:22.542Z,12.50
2018-03-23T16:33:48.815Z,11.18
2018-03-23T16:36:15.810Z,11.57
2018-03-23T16:38:42.060Z,11.32
2018-03-23T16:41:08.329Z,9.95
2018-03-23T16:43:34.557Z,10.85
2018-03-23T16:46:00.781Z,11.73
2018-03-23T16:48:27.054Z,11.12
2018-03-23T16:50:54.028Z,11.48
2018-03-23T16:53:21.036Z,12.23
2018-03-23T16:55:47.273Z,11.15
2018-03-23T16:58:13.769Z,11.43
2018-03-23T17:00:40.767Z,11.90
2018-03-23T17:03:07.028Z,11.10
2018-03-23T17:05:33.301Z,11.57
2018-03-23T17:07:59.584Z,11.20
2018-03-23T17:10:25.876Z,11.38
2018-03-23T17:12:52.137Z,12.43
2018-03-23T17:15:19.500Z,11.02
2018-03-23T17:17:46.569Z,11.05
2018-03-23T17:20:13.575Z,11.12
2018-03-23T17:22:39.924Z,13.88
2018-03-23T17:25:06.176Z,12.65
2018-03-23T17:27:32.455Z,11.60
2018-03-23T17:29:59.462Z,11.60
2018-03-23T17:32:25.701Z,12.68
2018-03-23T17:34:51.963Z,11.25
2018-03-23T17:37:18.195Z,11.73
2018-03-23T17:39:44.450Z,10.82
2018-03-23T17:42:10.707Z,12.48
2018-03-23T17:44:37.689Z,10.68
2018-03-23T17:47:03.962Z,11.70
2018-03-23T17:49:30.186Z,12.05
2018-03-23T17:51:56.479Z,10.45
2018-03-23T17:54:22.796Z,12.60
2018-03-23T17:56:49.082Z,10.57
2018-03-23T17:59:16.461Z,12.25
2018-03-23T18:01:42.776Z,12.45
2018-03-23T18:04:09.826Z,12.43
2018-03-23T18:06:37.600Z,11.55
2018-03-23T18:09:04.076Z,10.95
2018-03-23T18:11:31.079Z,12.98
2018-03-23T18:13:57.408Z,12.75
2018-03-23T18:16:23.686Z,11.95
2018-03-23T18:18:49.917Z,13.10
2018-03-23T18:21:16.187Z,13.45
2018-03-23T18:23:43.179Z,12.37
2018-03-23T18:26:09.493Z,14.45
2018-03-23T18:28:36.543Z,14.20
2018-03-23T18:31:03.582Z,13.45
2018-03-23T18:33:30.609Z,14.20
2018-03-23T18:35:57.105Z,13.62
2018-03-23T18:38:25.564Z,12.45
2018-03-23T18:40:52.083Z,14.32
2018-03-23T18:43:18.405Z,13.38
2018-03-23T18:45:46.645Z,13.95
2018-03-23T18:48:12.912Z,14.30
2018-03-23T18:50:39.230Z,15.07
2018-03-23T18:53:05.500Z,13.05
2018-03-23T18:55:32.518Z,14.85
2018-03-23T18:57:58.828Z,15.45
2018-03-23T19:00:25.128Z,14.98
2018-03-23T19:02:51.835Z,16.27
2018-03-23T19:05:19.211Z,17.17
2018-03-23T19:07:45.680Z,16.00
2018-03-23T19:10:11.929Z,15.95
2018-03-23T19:12:38.215Z,15.88
2018-03-23T19:15:04.517Z,15.65
2018-03-23T19:17:30.815Z,13.57
2018-03-23T19:19:57.144Z,14.25
2018-03-23T19:22:23.605Z,17.00
2018-03-23T19:24:49.912Z,17.60
2018-03-23T19:27:17.052Z,16.12
2018-03-23T19:29:43.334Z,17.20
2018-03-23T19:32:09.600Z,15.93
2018-03-23T19:34:35.888Z,15.27
2018-03-23T19:37:02.218Z,16.75
2018-03-23T19:39:28.532Z,19.62
2018-03-23T19:41:54.852Z,21.02
2018-03-23T19:44:21.210Z,22.85
2018-03-23T19:46:47.493Z,22.37
2018-03-23T19:49:13.799Z,19.27
2018-03-23T19:51:40.073Z,17.10
2018-03-23T19:54:06.560Z,20.23
2018-03-23T19:56:32.854Z,18.30
2018-03-23T19:58:59.134Z,17.87
2018-03-23T20:01:26.441Z,18.77
2018-03-23T20:03:52.737Z,15.18
2018-03-23T20:06:19.851Z,18.90
2018-03-23T20:08:46.147Z,15.95
2018-03-23T20:11:13.352Z,16.23
2018-03-23T20:13:40.408Z,16.60
2018-03-23T20:16:06.731Z,18.48
2018-03-23T20:18:33.040Z,15.23
2018-03-23T20:21:01.784Z,16.27
2018-03-23T20:23:28.991Z,15.63
2018-03-23T20:25:55.321Z,16.35
2018-03-23T20:28:29.007Z,15.80
2018-03-23T20:30:57.535Z,17.02
2018-03-23T20:33:23.965Z,16.95
2018-03-23T20:35:50.415Z,17.50
2018-03-23T20:38:16.719Z,16.87
2018-03-23T20:40:43.024Z,18.40
2018-03-23T20:43:09.301Z,18.60
2018-03-23T20:45:36.636Z,18.75
2018-03-23T20:48:03.150Z,17.08
2018-03-23T20:50:29.438Z,17.90
2018-03-23T20:52:55.881Z,18.70
2018-03-23T20:55:23.270Z,18.08
2018-03-23T20:57:50.474Z,19.00
2018-03-23T21:00:17.627Z,17.00
2018-03-23T21:02:43.888Z,17.70
2018-03-23T21:05:10.186Z,18.25
2018-03-23T21:07:38.276Z,20.77
2018-03-23T21:10:04.550Z,21.42
2018-03-23T21:12:30.850Z,20.27
2018-03-23T21:14:57.148Z,18.48
2018-03-23T21:17:23.344Z,19.25
2018-03-23T21:19:53.291Z,19.67
2018-03-23T21:22:19.528Z,18.17
2018-03-23T21:24:46.716Z,19.40
2018-03-23T21:27:13.208Z,19.65
2018-03-23T21:29:40.651Z,18.37
2018-03-23T21:32:07.636Z,18.20
2018-03-23T21:34:33.908Z,18.60
2018-03-23T21:37:01.166Z,18.85
2018-03-23T21:39:27.400Z,18.25
2018-03-23T21:41:54.414Z,20.45
2018-03-23T21:44:21.738Z,19.58
2018-03-23T21:46:48.802Z,19.60
2018-03-23T21:49:16.065Z,18.77
2018-03-23T21:51:42.591Z,20.95
2018-03-23T21:54:08.833Z,19.70
2018-03-23T21:56:35.115Z,20.10
2018-03-23T21:59:01.328Z,17.40
2018-03-23T22:01:27.663Z,18.48
2018-03-23T22:03:53.928Z,18.77
2018-03-23T22:06:20.200Z,18.50
2018-03-23T22:08:47.154Z,17.65
2018-03-23T22:11:14.120Z,19.30
2018-03-23T22:13:41.099Z,21.27
2018-03-23T22:16:07.316Z,21.48
2018-03-23T22:18:34.271Z,19.33
2018-03-23T22:21:01.256Z,20.55
2018-03-23T22:23:27.502Z,20.20
2018-03-23T22:25:53.740Z,21.12
2018-03-23T22:28:19.971Z,20.02
2018-03-23T22:30:46.188Z,20.08
2018-03-23T22:33:13.183Z,19.83
2018-03-23T22:35:39.415Z,19.45
2018-03-23T22:38:05.665Z,19.33
2018-03-23T22:40:31.910Z,20.15
2018-03-23T22:42:58.153Z,18.20
2018-03-23T22:45:24.400Z,18.75
2018-03-23T22:47:50.616Z,18.92
2018-03-23T22:50:16.847Z,17.60
2018-03-23T22:52:43.057Z,18.12
2018-03-23T22:55:09.314Z,19.85
2018-03-23T22:57:36.273Z,19.75
2018-03-23T23:00:03.281Z,21.15
2018-03-23T23:02:29.515Z,20.15
2018-03-23T23:04:55.732Z,20.00
2018-03-23T23:07:21.977Z,20.05
2018-03-23T23:09:48.243Z,18.95
2018-03-23T23:12:14.469Z,18.60
2018-03-23T23:14:40.713Z,17.60
2018-03-23T23:17:06.922Z,18.23
2018-03-23T23:19:33.207Z,20.12
2018-03-23T23:21:59.459Z,21.17
2018-03-23T23:24:27.173Z,20.05
2018-03-23T23:26:54.156Z,20.83
2018-03-23T23:29:20.364Z,20.23
2018-03-23T23:31:47.336Z,20.00
2018-03-23T23:34:13.551Z,21.20
2018-03-23T23:36:40.034Z,21.00
2018-03-23T23:39:06.256Z,18.45
2018-03-23T23:41:33.218Z,22.00
2018-03-23T23:43:59.437Z,21.73
2018-03-23T23:46:25.674Z,22.87
2018-03-23T23:48:51.886Z,19.67
2018-03-23T23:51:18.853Z,23.12
2018-03-23T23:53:45.112Z,21.37
2018-03-23T23:56:11.338Z,20.20
2018-03-23T23:58:37.562Z,21.60
